Time;durP1;ratioP1;P1;durP2;ratioP2;P2;SDS_P1;SDS_P2;PMS_P1;PMS_P2;Temp;Humidity;BMP_temperature;BMP_pressure;BME280_temperature;BME280_humidity;BME280_pressure;Samples;Min_cycle;Max_cycle;Signal;HPM_P1;HPM_P2
2023/03/01 00:01:50;;;;;;;17.20;10.70;;;;;;;-3.53;74.65;100476.36;105546;1253;71762;-73
2023/03/01 00:04:19;;;;;;;17.50;9.10;;;;;;;-3.56;74.64;100475.05;105491;1253;60258;-73
2023/03/01 00:06:49;;;;;;;14.90;8.90;;;;;;;-3.46;74.70;100476.23;105535;1253;59687;-71
2023/03/01 00:09:17;;;;;;;13.50;9.20;;;;;;;-3.36;74.53;100474.99;105696;1253;72349;-70
2023/03/01 00:11:47;;;;;;;13.20;8.60;;;;;;;-3.38;74.68;100466.55;105781;1253;71686;-71
2023/03/01 00:14:18;;;;;;;15.30;9.20;;;;;;;-3.43;74.76;100454.81;105627;1253;73893;-71
2023/03/01 00:16:52;;;;;;;14.90;9.90;;;;;;;-3.48;74.88;100444.43;105518;1253;59614;-71
2023/03/01 00:19:21;;;;;;;13.50;9.50;;;;;;;-3.52;75.25;100437.36;105693;1253;59890;-70
2023/03/01 00:21:50;;;;;;;16.00;9.40;;;;;;;-3.56;75.30;100420.69;105587;1257;74062;-69
2023/03/01 00:24:18;;;;;;;13.80;9.40;;;;;;;-3.47;75.29;100406.80;105663;1253;71502;-70
2023/03/01 00:26:47;;;;;;;15.00;9.60;;;;;;;-3.39;75.15;100409.61;105633;1255;72100;-71
2023/03/01 00:29:15;;;;;;;17.00;10.10;;;;;;;-3.43;75.31;100404.40;105668;1253;60512;-69
2023/03/01 00:31:44;;;;;;;16.10;10.40;;;;;;;-3.47;75.43;100401.10;105565;1252;60635;-70
2023/03/01 00:34:14;;;;;;;15.70;9.50;;;;;;;-3.50;75.52;100393.25;105376;1256;73015;-71
2023/03/01 00:36:42;;;;;;;13.90;9.00;;;;;;;-3.51;75.62;100382.20;105369;1253;69157;-71
2023/03/01 00:39:13;;;;;;;15.40;9.60;;;;;;;-3.38;75.52;100398.14;105832;1253;73654;-69
2023/03/01 00:41:44;;;;;;;15.20;9.00;;;;;;;-3.30;75.41;100401.13;105506;1253;59710;-70
2023/03/01 00:44:15;;;;;;;16.80;11.20;;;;;;;-3.32;75.39;100393.21;105353;1253;59855;-68
2023/03/01 00:46:43;;;;;;;16.60;10.50;;;;;;;-3.34;75.41;100396.44;105850;1256;73331;-73
2023/03/01 00:49:12;;;;;;;18.90;10.80;;;;;;;-3.37;75.41;100385.80;105416;1253;70583;-69
2023/03/01 00:51:41;;;;;;;16.30;9.20;;;;;;;-3.40;75.48;100384.36;105561;1253;72899;-69
2023/03/01 00:54:09;;;;;;;16.10;10.00;;;;;;;-3.32;75.39;100381.28;105545;1253;61218;-69
2023/03/01 00:56:39;;;;;;;16.90;10.10;;;;;;;-3.23;75.14;100381.77;105581;1253;61352;-71
2023/03/01 00:59:08;;;;;;;17.80;10.70;;;;;;;-3.26;75.25;100380.88;105740;1255;73771;-77
2023/03/01 01:01:38;;;;;;;17.50;10.90;;;;;;;-3.31;75.29;100375.02;106147;1253;69948;-84
2023/03/01 01:04:09;;;;;;;16.20;9.60;;;;;;;-3.36;75.39;100367.91;106155;1253;73611;-74
2023/03/01 01:06:46;;;;;;;15.20;10.30;;;;;;;-3.38;75.48;100365.92;106150;1252;59836;-78
2023/03/01 01:09:19;;;;;;;20.50;11.90;;;;;;;-3.40;75.71;100361.84;107214;1252;59617;-78
2023/03/01 01:11:49;;;;;;;;;;;;;;;-3.29;75.45;100354.45;106184;1259;73659;-81
2023/03/01 01:14:18;;;;;;;15.10;9.50;;;;;;;-3.24;75.30;100352.34;105808;1260;70491;-76
2023/03/01 01:16:46;;;;;;;15.00;9.30;;;;;;;-3.27;75.22;100350.77;105980;1258;73323;-79
2023/03/01 01:19:14;;;;;;;16.30;10.50;;;;;;;-3.32;75.22;100340.22;105924;1251;60275;-74
2023/03/01 01:21:44;;;;;;;16.60;10.30;;;;;;;-3.35;75.39;100338.79;105898;1253;61182;-78
2023/03/01 01:24:13;;;;;;;17.00;10.10;;;;;;;-3.35;75.49;100342.25;105949;1255;72412;-76
2023/03/01 01:26:41;;;;;;;15.40;9.80;;;;;;;-3.23;75.29;100346.25;105975;1256;71265;-77
2023/03/01 01:29:09;;;;;;;15.40;9.70;;;;;;;-3.20;75.09;100350.41;105961;1255;72539;-76
2023/03/01 01:31:41;;;;;;;16.50;11.30;;;;;;;-3.23;75.06;100344.87;105957;1252;59638;-79
2023/03/01 01:34:16;;;;;;;15.40;9.50;;;;;;;-3.24;74.99;100347.00;105821;1253;59711;-78
2023/03/01 01:36:46;;;;;;;16.30;10.10;;;;;;;-3.27;75.06;100343.31;106092;1253;74129;-74
2023/03/01 01:39:15;;;;;;;16.30;9.80;;;;;;;-3.31;75.07;100342.77;105452;1257;69835;-77
2023/03/01 01:41:43;;;;;;;16.60;10.30;;;;;;;-3.25;75.03;100334.70;105836;1255;72984;-75
2023/03/01 01:44:26;;;;;;;14.20;10.10;;;;;;;-3.14;74.87;100336.31;107185;1252;61188;-75
2023/03/01 01:47:09;;;;;;;14.30;9.50;;;;;;;-3.16;74.77;100331.90;109012;1252;59397;-76
2023/03/01 01:49:47;;;;;;;15.90;9.80;;;;;;;-3.20;74.90;100326.16;107938;1254;72747;-71
2023/03/01 01:52:25;;;;;;;18.40;9.90;;;;;;;-3.23;74.86;100319.73;106813;1252;71212;-72
2023/03/01 01:54:56;;;;;;;16.20;10.30;;;;;;;-3.25;74.90;100316.38;106544;1255;72213;-72
2023/03/01 01:57:27;;;;;;;17.90;9.80;;;;;;;-3.27;74.84;100316.25;106049;1254;62818;-73
2023/03/01 01:59:58;;;;;;;17.80;11.10;;;;;;;-3.16;74.88;100312.31;106390;1253;59754;-76
2023/03/01 02:02:26;;;;;;;16.10;10.00;;;;;;;-3.10;74.55;100307.89;106379;1253;71278;-74
2023/03/01 02:05:20;;;;;;;15.00;9.60;;;;;;;-3.13;74.63;100301.64;106493;1253;71451;-74
2023/03/01 02:07:48;;;;;;;16.90;10.40;;;;;;;-3.18;74.63;100296.79;106535;1253;72828;-72
2023/03/01 02:10:23;;;;;;;15.60;9.60;;;;;;;-3.20;74.70;100293.46;108261;1251;60360;-72
2023/03/01 02:12:51;;;;;;;16.40;10.60;;;;;;;-3.23;74.65;100295.31;108190;1251;58890;-75
2023/03/01 02:15:21;;;;;;;15.80;10.10;;;;;;;-3.24;74.76;100293.62;107006;1253;73320;-70
2023/03/01 02:17:54;;;;;;;15.10;9.70;;;;;;;-3.12;74.65;100292.41;106947;1253;69424;-73
2023/03/01 02:20:28;;;;;;;15.30;9.90;;;;;;;-3.04;74.32;100289.08;106254;1253;73713;-73
2023/03/01 02:22:58;;;;;;;18.40;11.30;;;;;;;-3.06;74.42;100281.75;106794;1256;60326;-73
2023/03/01 02:25:55;;;;;;;17.10;10.60;;;;;;;-3.11;74.41;100280.41;106605;1258;59635;-72
2023/03/01 02:28:37;;;;;;;17.80;11.30;;;;;;;-3.17;74.56;100279.60;109077;1251;73133;-74
2023/03/01 02:33:55;;;;;;;17.60;10.60;;;;;;;-3.14;74.65;100275.35;109240;1253;72604;-74
2023/03/01 02:36:30;;;;;;;16.40;9.70;;;;;;;-3.02;74.45;100266.13;109015;1253;59530;-73
2023/03/01 02:39:06;;;;;;;17.00;10.40;;;;;;;-3.01;74.24;100261.41;109109;1253;60421;-74
2023/03/01 02:41:37;;;;;;;15.80;9.30;;;;;;;-3.04;74.29;100269.69;109477;1253;73754;-78
2023/03/01 02:44:08;;;;;;;16.10;10.00;;;;;;;-3.06;74.40;100266.31;109587;1252;70220;-79
2023/03/01 02:46:42;;;;;;;17.60;10.60;;;;;;;-3.07;74.36;100262.91;109356;1253;72334;-77
2023/03/01 02:49:38;;;;;;;17.50;10.80;;;;;;;-3.09;74.40;100254.68;109525;1252;60419;-75
2023/03/01 02:52:43;;;;;;;17.10;10.00;;;;;;;-3.00;74.28;100247.54;109500;1252;60046;-76
2023/03/01 02:55:13;;;;;;;16.60;10.50;;;;;;;-2.88;73.90;100241.08;109207;1253;72808;-75
2023/03/01 02:57:43;;;;;;;15.50;10.20;;;;;;;-2.91;74.10;100237.90;109155;1253;70319;-77
2023/03/01 03:00:19;;;;;;;17.00;10.60;;;;;;;-2.94;74.01;100235.13;109063;1253;70962;-73
2023/03/01 03:02:50;;;;;;;15.00;10.20;;;;;;;-2.98;74.08;100235.28;109087;1252;59637;-76
2023/03/01 03:05:23;;;;;;;17.40;10.90;;;;;;;-3.01;74.01;100232.13;109304;1253;59331;-74
2023/03/01 03:07:57;;;;;;;16.70;10.10;;;;;;;-3.04;74.01;100218.20;109204;1253;73408;-73
2023/03/01 03:10:31;;;;;;;15.40;10.20;;;;;;;-3.03;74.13;100214.71;107890;1253;69625;-73
2023/03/01 03:13:10;;;;;;;15.60;9.90;;;;;;;-2.91;73.97;100212.94;105785;1258;72870;-74
2023/03/01 03:15:40;;;;;;;18.70;10.50;;;;;;;-2.90;73.86;100207.19;105883;1253;60537;-73
2023/03/01 03:18:11;;;;;;;15.30;10.40;;;;;;;-2.97;73.96;100204.02;105942;1255;61029;-74
2023/03/01 03:20:40;;;;;;;21.90;11.70;;;;;;;-3.03;74.09;100210.88;105949;1255;72893;-74
2023/03/01 03:23:09;;;;;;;17.80;9.60;;;;;;;-3.08;74.29;100213.74;105681;1251;69975;-76
2023/03/01 03:25:38;;;;;;;15.00;10.00;;;;;;;-3.15;74.40;100214.73;106019;1256;72214;-73
2023/03/01 03:28:09;;;;;;;18.10;10.60;;;;;;;-3.19;74.47;100223.55;105889;1253;62754;-75
2023/03/01 03:30:39;;;;;;;16.90;10.30;;;;;;;-3.11;74.48;100225.13;105924;1253;61532;-72
2023/03/01 03:33:08;;;;;;;14.10;10.00;;;;;;;-3.07;74.52;100218.20;105913;1256;74824;-74
2023/03/01 03:35:45;;;;;;;14.30;10.30;;;;;;;-3.12;74.56;100222.92;106821;1255;71300;-72
2023/03/01 03:38:16;;;;;;;17.60;11.20;;;;;;;-3.17;74.66;100217.40;106411;1252;73491;-72
2023/03/01 03:41:04;;;;;;;16.60;11.00;;;;;;;-3.19;74.82;100216.28;106197;1254;60425;-73
2023/03/01 03:43:36;;;;;;;17.70;11.50;;;;;;;-3.22;74.85;100215.56;106528;1253;61222;-72
2023/03/01 03:46:07;;;;;;;16.40;10.20;;;;;;;-3.23;74.92;100209.73;106078;1259;74759;-71
2023/03/01 03:48:39;;;;;;;17.90;10.60;;;;;;;-3.15;74.94;100206.58;106792;1254;71091;-71
2023/03/01 03:51:16;;;;;;;14.20;9.50;;;;;;;-3.07;74.91;100212.48;107186;1253;72308;-72
2023/03/01 03:53:44;;;;;;;16.20;9.90;;;;;;;-3.11;74.95;100213.00;106236;1252;60629;-71
2023/03/01 03:56:12;;;;;;;18.20;11.00;;;;;;;-3.14;74.91;100206.17;105657;1253;60488;-71
2023/03/01 03:58:42;;;;;;;17.80;11.30;;;;;;;-3.17;75.13;100196.10;105880;1255;72500;-70
2023/03/01 04:01:10;;;;;;;16.20;11.60;;;;;;;-3.20;75.23;100194.15;105976;1253;68022;-74
2023/03/01 04:03:41;;;;;;;17.60;10.50;;;;;;;-3.24;75.35;100192.61;105993;1257;73443;-72
2023/03/01 04:06:10;;;;;;;16.00;10.40;;;;;;;-3.18;75.40;100186.98;105938;1251;62683;-74
2023/03/01 04:08:40;;;;;;;15.70;10.00;;;;;;;-3.08;75.22;100191.88;106169;1253;60347;-73
2023/03/01 04:11:26;;;;;;;15.80;10.30;;;;;;;-3.07;75.42;100193.08;106352;1255;73807;-73
2023/03/01 04:13:58;;;;;;;18.00;10.10;;;;;;;-3.13;75.45;100191.59;105892;1257;71340;-73
2023/03/01 04:16:26;;;;;;;14.70;10.30;;;;;;;-3.18;75.67;100194.05;106263;1256;72762;-70
2023/03/01 04:18:55;;;;;;;17.70;11.30;;;;;;;-3.21;75.79;100193.01;106511;1253;60673;-71
2023/03/01 04:21:24;;;;;;;17.00;11.30;;;;;;;-3.25;75.93;100193.04;106055;1253;61556;-74
2023/03/01 04:23:53;;;;;;;16.30;10.90;;;;;;;-3.27;76.07;100186.36;105988;1253;74095;-72
2023/03/01 04:26:25;;;;;;;18.30;10.80;;;;;;;-3.17;76.05;100185.73;105977;1253;69316;-73
2023/03/01 04:28:53;;;;;;;16.00;10.40;;;;;;;-3.12;76.20;100189.46;105933;1260;72677;-74
2023/03/01 04:31:23;;;;;;;16.60;10.00;;;;;;;-3.16;76.07;100186.20;105978;1253;60792;-75
2023/03/01 04:33:52;;;;;;;17.50;11.50;;;;;;;-3.22;76.28;100181.24;106038;1253;61602;-75
2023/03/01 04:36:25;;;;;;;14.80;10.00;;;;;;;-3.26;76.41;100183.55;105976;1253;73505;-71
2023/03/01 04:38:54;;;;;;;17.90;11.10;;;;;;;-3.30;76.49;100195.30;105899;1253;71188;-74
2023/03/01 04:41:23;;;;;;;17.40;11.00;;;;;;;-3.33;76.66;100200.80;106604;1255;73969;-74
2023/03/01 04:43:54;;;;;;;15.40;11.00;;;;;;;-3.23;76.40;100203.98;106718;1254;60569;-77
2023/03/01 04:46:22;;;;;;;15.00;10.60;;;;;;;-3.10;76.27;100209.16;106011;1253;60487;-74
2023/03/01 04:48:55;;;;;;;16.50;10.80;;;;;;;-3.10;76.42;100213.11;106012;1258;74615;-74
2023/03/01 04:51:26;;;;;;;19.40;12.20;;;;;;;-3.08;76.62;100209.76;108005;1254;68424;-71
2023/03/01 04:53:58;;;;;;;17.70;11.90;;;;;;;-3.07;76.62;100209.50;106681;1253;71911;-73
2023/03/01 04:56:27;;;;;;;20.70;12.80;;;;;;;-3.07;76.62;100206.74;106824;1253;60553;-72
2023/03/01 04:58:55;;;;;;;17.90;11.70;;;;;;;-3.08;76.63;100204.19;106200;1256;60410;-76
2023/03/01 05:01:25;;;;;;;21.20;12.70;;;;;;;-2.99;76.43;100196.67;106198;1254;72611;-74
2023/03/01 05:03:54;;;;;;;18.60;12.40;;;;;;;-2.88;76.26;100199.47;106144;1253;69283;-73
2023/03/01 05:06:23;;;;;;;19.40;12.60;;;;;;;-2.90;76.54;100202.36;105996;1253;72666;-73
2023/03/01 05:08:51;;;;;;;18.70;11.00;;;;;;;-2.91;76.56;100202.94;105737;1253;60349;-74
2023/03/01 05:11:22;;;;;;;16.50;10.90;;;;;;;-2.89;76.75;100210.27;105957;1254;61238;-75
2023/03/01 05:13:54;;;;;;;25.50;14.30;;;;;;;-2.87;76.67;100215.89;105997;1257;73672;-75
2023/03/01 05:16:22;;;;;;;21.40;12.30;;;;;;;-2.85;76.73;100223.27;106057;1258;70210;-74
2023/03/01 05:18:55;;;;;;;25.80;11.60;;;;;;;-2.73;76.67;100224.27;105937;1253;73832;-74
2023/03/01 05:21:23;;;;;;;20.00;12.50;;;;;;;-2.56;76.56;100227.43;106040;1253;60451;-70
2023/03/01 05:23:58;;;;;;;27.40;11.70;;;;;;;-2.51;76.49;100222.00;106212;1253;61516;-74
2023/03/01 05:26:28;;;;;;;23.20;11.80;;;;;;;-2.50;76.53;100219.17;106018;1258;74814;-74
2023/03/01 05:28:58;;;;;;;19.00;12.20;;;;;;;-2.50;76.48;100205.98;105932;1258;69145;-74
2023/03/01 05:31:30;;;;;;;18.50;12.30;;;;;;;-2.50;76.57;100203.77;105934;1253;73868;-74
2023/03/01 05:33:59;;;;;;;17.60;10.50;;;;;;;-2.52;76.63;100206.81;106083;1253;60353;-73
2023/03/01 05:36:28;;;;;;;16.40;10.60;;;;;;;-2.47;76.73;100208.96;106282;1253;61354;-73
2023/03/01 05:38:57;;;;;;;15.90;9.80;;;;;;;-2.33;76.61;100206.73;107607;1260;73714;-77
2023/03/01 05:41:25;;;;;;;18.30;12.10;;;;;;;-2.29;76.54;100206.36;107897;1253;70960;-75
2023/03/01 05:43:54;;;;;;;17.20;10.90;;;;;;;-2.31;76.66;100204.91;106226;1253;73794;-74
2023/03/01 05:46:24;;;;;;;20.10;11.50;;;;;;;-2.33;76.52;100204.15;106001;1253;60666;-77
2023/03/01 05:48:53;;;;;;;18.60;11.90;;;;;;;-2.34;76.66;100209.77;106030;1253;61088;-77
2023/03/01 05:51:22;;;;;;;17.50;11.70;;;;;;;-2.37;76.76;100216.83;106554;1253;72019;-73
2023/03/01 05:53:50;;;;;;;17.50;10.70;;;;;;;-2.24;76.74;100218.30;107090;1260;70590;-74
2023/03/01 05:56:18;;;;;;;17.70;11.50;;;;;;;-2.15;76.62;100221.15;107945;1254;72625;-73
2023/03/01 05:58:48;;;;;;;18.20;12.10;;;;;;;-2.16;76.73;100215.98;106287;1254;60464;-74
2023/03/01 06:01:17;;;;;;;20.20;12.80;;;;;;;-2.16;76.78;100210.59;106210;1256;61451;-69
2023/03/01 06:03:47;;;;;;;20.00;12.40;;;;;;;-2.16;76.74;100218.55;105811;1258;72998;-69
2023/03/01 06:06:16;;;;;;;19.60;11.90;;;;;;;-2.14;76.52;100222.84;106177;1259;71248;-69
2023/03/01 06:08:50;;;;;;;19.00;12.30;;;;;;;-2.01;76.58;100220.45;106152;1253;71878;-69
2023/03/01 06:11:20;;;;;;;18.50;11.60;;;;;;;-1.87;76.15;100215.56;105719;1253;60913;-69
2023/03/01 06:13:49;;;;;;;20.60;12.00;;;;;;;-1.88;75.97;100220.84;105759;1258;61104;-68
2023/03/01 06:16:22;;;;;;;24.50;14.00;;;;;;;-1.93;75.74;100226.11;105935;1259;75014;-69
2023/03/01 06:18:51;;;;;;;18.90;13.00;;;;;;;-1.95;75.89;100217.75;105861;1254;71673;-68
2023/03/01 06:21:19;;;;;;;22.40;14.00;;;;;;;-1.96;75.81;100222.64;105635;1253;72426;-68
2023/03/01 06:23:47;;;;;;;21.00;12.40;;;;;;;-1.92;75.80;100223.66;105736;1257;60507;-68
2023/03/01 06:26:16;;;;;;;18.30;12.20;;;;;;;-1.87;75.76;100231.21;105705;1253;60540;-71
2023/03/01 06:28:45;;;;;;;18.10;12.30;;;;;;;-1.72;75.50;100242.95;106095;1257;73979;-70
2023/03/01 06:31:15;;;;;;;20.10;12.60;;;;;;;-1.60;75.31;100239.05;106100;1253;71370;-71
2023/03/01 06:33:44;;;;;;;19.00;11.60;;;;;;;-1.60;75.17;100245.63;106219;1258;72920;-69
2023/03/01 06:36:13;;;;;;;20.00;12.00;;;;;;;-1.62;75.13;100243.13;105970;1253;60640;-70
2023/03/01 06:38:42;;;;;;;23.30;13.80;;;;;;;-1.64;74.99;100239.80;106040;1253;61136;-71
2023/03/01 06:41:11;;;;;;;24.70;13.30;;;;;;;-1.67;75.06;100242.71;106058;1258;73633;-72
2023/03/01 06:43:39;;;;;;;21.40;11.70;;;;;;;-1.67;75.31;100242.73;106023;1256;70450;-71
2023/03/01 06:46:08;;;;;;;19.20;12.20;;;;;;;-1.54;75.08;100242.40;105721;1253;71365;-69
2023/03/01 06:48:36;;;;;;;19.80;11.90;;;;;;;-1.45;75.04;100236.37;105889;1257;60447;-70
2023/03/01 06:51:07;;;;;;;21.00;14.00;;;;;;;-1.44;75.02;100231.99;106180;1253;61069;-70
2023/03/01 06:53:35;;;;;;;19.50;14.40;;;;;;;-1.43;74.95;100234.01;106205;1258;74965;-69
2023/03/01 06:56:04;;;;;;;22.60;14.60;;;;;;;-1.42;75.01;100235.53;106633;1255;68995;-71
2023/03/01 06:58:35;;;;;;;23.90;16.20;;;;;;;-1.39;75.11;100232.91;106733;1255;73276;-74
2023/03/01 07:01:07;;;;;;;26.80;14.90;;;;;;;-1.33;75.14;100237.48;106411;1261;60318;-78
2023/03/01 07:03:36;;;;;;;21.30;14.50;;;;;;;-1.20;74.97;100241.16;106619;1254;60461;-75
2023/03/01 07:06:05;;;;;;;21.30;14.50;;;;;;;-1.06;75.29;100240.77;106542;1258;73265;-79
2023/03/01 07:08:34;;;;;;;22.90;14.80;;;;;;;-1.06;75.68;100237.78;106541;1257;70238;-76
2023/03/01 07:11:04;;;;;;;20.70;14.90;;;;;;;-1.06;76.44;100240.05;106678;1253;74220;-76
2023/03/01 07:13:35;;;;;;;25.90;15.80;;;;;;;-1.04;76.65;100235.59;106508;1253;60561;-75
2023/03/01 07:16:08;;;;;;;26.40;16.90;;;;;;;-1.01;76.78;100234.38;106752;1253;60591;-77
2023/03/01 07:18:36;;;;;;;23.70;16.50;;;;;;;-0.97;77.08;100241.85;106753;1255;73509;-75
2023/03/01 07:21:08;;;;;;;26.30;15.90;;;;;;;-0.83;77.17;100239.34;106386;1253;71609;-70
2023/03/01 07:23:39;;;;;;;25.70;15.80;;;;;;;-0.76;77.06;100231.67;106410;1256;72621;-76
2023/03/01 07:26:07;;;;;;;24.90;16.30;;;;;;;-0.73;77.20;100235.69;106800;1258;60511;-72
2023/03/01 07:28:38;;;;;;;24.30;15.80;;;;;;;-0.69;77.24;100233.55;106315;1253;61312;-73
2023/03/01 07:31:07;;;;;;;24.40;15.70;;;;;;;-0.63;77.28;100236.16;106164;1256;73256;-71
2023/03/01 07:33:37;;;;;;;19.80;13.60;;;;;;;-0.53;77.09;100234.77;105902;1256;70931;-72
2023/03/01 07:36:06;;;;;;;20.80;14.30;;;;;;;-0.31;76.81;100231.95;106159;1253;73923;-75
2023/03/01 07:38:36;;;;;;;21.90;14.20;;;;;;;-0.17;76.30;100243.20;106426;1257;60419;-72
2023/03/01 07:41:05;;;;;;;23.50;14.80;;;;;;;-0.19;76.15;100237.04;106190;1253;60437;-73
2023/03/01 07:43:37;;;;;;;23.50;14.70;;;;;;;-0.20;76.02;100241.79;106067;1254;73652;-73
2023/03/01 07:46:06;;;;;;;21.00;14.50;;;;;;;-0.21;75.69;100239.40;105840;1256;69164;-74
2023/03/01 07:48:35;;;;;;;17.90;13.60;;;;;;;-0.23;75.70;100243.73;106108;1253;73622;-72
2023/03/01 07:51:04;;;;;;;19.10;12.80;;;;;;;-0.21;75.54;100237.67;106162;1258;60424;-73
2023/03/01 07:53:35;;;;;;;25.40;13.50;;;;;;;-0.06;75.30;100234.77;106128;1253;60445;-70
2023/03/01 07:56:11;;;;;;;21.70;14.50;;;;;;;0.10;75.10;100232.59;107447;1251;72914;-73
2023/03/01 07:58:42;;;;;;;20.00;13.40;;;;;;;0.18;74.72;100231.58;108141;1252;70390;-72
2023/03/01 08:01:15;;;;;;;20.70;14.20;;;;;;;0.20;74.30;100234.27;107130;1253;72741;-74
2023/03/01 08:03:51;;;;;;;20.00;14.70;;;;;;;0.23;74.36;100232.58;107385;1253;60439;-74
2023/03/01 08:06:21;;;;;;;19.40;14.00;;;;;;;0.25;74.37;100226.67;107632;1256;60432;-74
2023/03/01 08:09:24;;;;;;;18.10;13.40;;;;;;;0.32;74.08;100226.42;106988;1259;73840;-74
2023/03/01 08:11:56;;;;;;;19.50;13.00;;;;;;;0.37;73.69;100227.02;106877;1255;68271;-75
2023/03/01 08:14:43;;;;;;;24.20;14.40;;;;;;;0.60;73.61;100227.54;107237;1253;71784;-73
2023/03/01 08:17:14;;;;;;;21.60;14.60;;;;;;;0.77;73.28;100232.80;107532;1254;60546;-74
2023/03/01 08:19:44;;;;;;;17.70;14.20;;;;;;;0.81;72.84;100231.34;107507;1258;60357;-73
2023/03/01 08:22:13;;;;;;;20.10;14.10;;;;;;;0.82;72.51;100226.23;106809;1260;74991;-74
2023/03/01 08:24:42;;;;;;;19.80;13.70;;;;;;;0.84;72.59;100225.95;106964;1258;70637;-71
2023/03/01 08:27:11;;;;;;;22.10;13.70;;;;;;;0.88;72.42;100219.75;106666;1253;70997;-73
2023/03/01 08:29:40;;;;;;;20.50;13.90;;;;;;;0.89;72.00;100215.35;107066;1255;60534;-72
2023/03/01 08:32:08;;;;;;;17.10;12.90;;;;;;;0.84;71.99;100210.75;106997;1253;60504;-73
2023/03/01 08:34:37;;;;;;;20.20;13.40;;;;;;;0.85;72.18;100204.06;107363;1254;73635;-71
2023/03/01 08:37:07;;;;;;;16.60;12.50;;;;;;;1.00;72.10;100202.29;107107;1254;69772;-73
2023/03/01 08:39:36;;;;;;;17.60;11.60;;;;;;;1.11;72.03;100205.24;107066;1256;72748;-74
2023/03/01 08:42:05;;;;;;;19.30;13.50;;;;;;;1.17;71.91;100206.41;108383;1251;60331;-73
2023/03/01 08:44:34;;;;;;;18.10;12.70;;;;;;;1.26;71.66;100206.75;108955;1253;60275;-71
2023/03/01 08:47:04;;;;;;;18.00;13.60;;;;;;;1.41;71.53;100204.59;108968;1257;74128;-72
2023/03/01 08:49:33;;;;;;;20.00;13.90;;;;;;;1.55;71.12;100216.44;108587;1253;69146;-75
2023/03/01 08:52:02;;;;;;;20.90;13.90;;;;;;;1.63;70.60;100212.27;108549;1253;72443;-71
2023/03/01 08:54:32;;;;;;;22.00;13.80;;;;;;;1.68;70.25;100215.10;108676;1257;58654;-71
2023/03/01 08:57:02;;;;;;;21.00;13.40;;;;;;;1.69;70.02;100217.11;108930;1253;60414;-69
2023/03/01 08:59:36;;;;;;;19.60;13.20;;;;;;;1.71;69.90;100215.55;109045;1259;74720;-76
2023/03/01 09:02:06;;;;;;;18.60;12.00;;;;;;;1.75;69.87;100214.76;108943;1258;69289;-74
2023/03/01 09:04:34;;;;;;;16.80;11.20;;;;;;;1.94;69.43;100214.43;109162;1253;72392;-73
2023/03/01 09:07:04;;;;;;;20.40;13.00;;;;;;;2.05;69.14;100213.86;109118;1252;60284;-78
2023/03/01 09:09:32;;;;;;;19.10;13.00;;;;;;;2.14;69.27;100212.55;109057;1252;58458;-79
2023/03/01 09:12:03;;;;;;;18.00;12.60;;;;;;;2.35;68.90;100213.23;109270;1254;73792;-76
2023/03/01 09:14:37;;;;;;;21.80;12.70;;;;;;;2.54;67.90;100212.32;109296;1256;69501;-75
2023/03/01 09:17:06;;;;;;;19.20;12.30;;;;;;;2.72;67.81;100213.19;109067;1256;71065;-75
2023/03/01 09:19:36;;;;;;;18.40;12.40;;;;;;;2.98;66.86;100207.39;108412;1254;59069;-76
2023/03/01 09:22:04;;;;;;;18.30;12.50;;;;;;;3.28;66.93;100208.00;108991;1251;60243;-74
2023/03/01 09:24:33;;;;;;;21.40;12.50;;;;;;;3.70;66.03;100213.27;108668;1253;73472;-79
2023/03/01 09:27:02;;;;;;;18.20;12.70;;;;;;;4.04;64.64;100214.71;106756;1257;70566;-78
2023/03/01 09:29:31;;;;;;;15.20;11.60;;;;;;;4.23;63.50;100214.39;106243;1259;72997;-78
2023/03/01 09:32:00;;;;;;;17.30;12.80;;;;;;;4.32;62.48;100216.13;106286;1257;60573;-81
2023/03/01 09:34:29;;;;;;;16.00;12.20;;;;;;;4.40;62.58;100221.86;106659;1257;60428;-82
2023/03/01 09:36:58;;;;;;;18.70;12.10;;;;;;;4.58;62.78;100220.51;106383;1253;74044;-79
2023/03/01 09:39:27;;;;;;;15.90;11.30;;;;;;;4.79;61.86;100230.09;106484;1256;70247;-81
2023/03/01 09:42:02;;;;;;;14.30;11.30;;;;;;;4.88;61.40;100232.26;107006;1257;73964;-81
2023/03/01 09:44:57;;;;;;;16.00;12.30;;;;;;;4.86;60.85;100238.54;106567;1254;60391;-82
2023/03/01 09:47:33;;;;;;;13.00;9.80;;;;;;;4.72;61.14;100241.40;106822;1253;60405;-82
2023/03/01 09:50:25;;;;;;;15.10;10.80;;;;;;;4.59;60.95;100246.76;106692;1259;73759;-84
2023/03/01 09:53:00;;;;;;;12.80;10.00;;;;;;;4.29;61.18;100244.97;107000;1254;70296;-83
2023/03/01 09:55:47;;;;;;;14.90;10.70;;;;;;;4.03;61.68;100242.88;107764;1258;72123;-80
2023/03/01 09:58:29;;;;;;;14.10;10.10;;;;;;;3.90;62.40;100248.95;108195;1253;59574;-82
2023/03/01 10:01:13;;;;;;;11.80;8.60;;;;;;;3.83;62.61;100249.80;108718;1255;60415;-82
2023/03/01 10:03:45;;;;;;;14.50;10.20;;;;;;;3.72;62.63;100243.02;108285;1253;73932;-83
2023/03/01 10:06:25;;;;;;;14.60;9.60;;;;;;;3.55;63.13;100239.39;107497;1253;71638;-81
2023/03/01 10:09:14;;;;;;;15.60;10.60;;;;;;;3.44;63.69;100239.42;107169;1254;72039;-82
2023/03/01 10:11:52;;;;;;;15.60;11.10;;;;;;;3.40;63.73;100232.55;106764;1259;61043;-83
2023/03/01 10:14:34;;;;;;;13.70;10.40;;;;;;;3.41;63.95;100230.23;106480;1257;60381;-74
2023/03/01 10:17:09;;;;;;;16.00;11.10;;;;;;;3.48;64.00;100228.70;106084;1259;73898;-76
2023/03/01 10:19:42;;;;;;;12.80;9.50;;;;;;;3.55;63.56;100228.01;105796;1254;69797;-77
2023/03/01 10:22:28;;;;;;;15.10;10.40;;;;;;;3.58;63.38;100226.92;106046;1257;70993;-75
2023/03/01 10:24:58;;;;;;;12.70;9.60;;;;;;;3.58;63.85;100225.81;105734;1253;60464;-75
2023/03/01 10:27:37;;;;;;;15.50;10.20;;;;;;;3.65;63.71;100219.38;106163;1254;61609;-77
2023/03/01 10:30:32;;;;;;;15.60;9.70;;;;;;;3.70;63.51;100221.42;106040;1259;74913;-78
2023/03/01 10:33:00;;;;;;;11.40;8.90;;;;;;;3.71;63.43;100219.09;105830;1257;70087;-74
2023/03/01 10:35:35;;;;;;;16.30;9.50;;;;;;;3.74;63.51;100216.38;105604;1257;280741;-75
2023/03/01 10:40:24;;;;;;;14.90;9.90;;;;;;;3.95;63.42;100212.41;102722;1293;602852;-76
2023/03/01 10:42:51;;;;;;;13.30;11.10;;;;;;;4.08;63.01;100211.11;106139;1259;59481;-77
2023/03/01 10:45:38;;;;;;;14.50;9.90;;;;;;;4.08;62.53;100209.56;105821;1263;60000;-76
2023/03/01 10:48:13;;;;;;;13.20;9.70;;;;;;;3.97;62.60;100208.77;105676;1262;73408;-77
2023/03/01 10:50:45;;;;;;;12.70;9.50;;;;;;;3.89;63.10;100208.86;105893;1263;70445;-76
2023/03/01 10:53:24;;;;;;;14.70;10.10;;;;;;;3.82;63.10;100213.20;105685;1260;199934;-75
2023/03/01 10:56:00;;;;;;;13.60;9.70;;;;;;;3.77;63.05;100212.76;105951;1257;60122;-76
2023/03/01 10:58:29;;;;;;;15.50;10.30;;;;;;;3.74;63.51;100219.02;105911;1259;60439;-77
2023/03/01 11:01:02;;;;;;;12.20;9.50;;;;;;;3.68;63.29;100218.06;108470;1255;72277;-76
2023/03/01 11:03:34;;;;;;;12.80;10.20;;;;;;;3.50;63.37;100212.05;108739;1262;71181;-76
2023/03/01 11:06:13;;;;;;;15.90;11.00;;;;;;;3.36;63.93;100212.88;106190;1257;72370;-76
2023/03/01 11:08:41;;;;;;;18.60;11.10;;;;;;;3.28;64.15;100216.77;105634;1258;60660;-76
2023/03/01 11:11:33;;;;;;;13.90;10.90;;;;;;;3.09;64.74;100210.78;105732;1256;59604;-75
2023/03/01 11:14:17;;;;;;;14.50;11.00;;;;;;;2.87;65.24;100216.38;105888;1259;74057;-76
2023/03/01 11:17:04;;;;;;;17.50;12.80;;;;;;;2.70;65.80;100216.27;105748;1254;70441;-74
2023/03/01 11:19:31;;;;;;;15.40;11.60;;;;;;;2.55;66.21;100221.65;105796;1254;73578;-76
2023/03/01 11:22:19;;;;;;;19.50;11.50;;;;;;;2.45;66.65;100223.08;105612;1259;59810;-76
2023/03/01 11:24:47;;;;;;;18.30;12.10;;;;;;;2.37;67.14;100218.55;105810;1255;59685;-75
2023/03/01 11:27:36;;;;;;;14.90;10.30;;;;;;;2.33;67.27;100215.45;105682;1260;74069;-76
2023/03/01 11:30:12;;;;;;;13.40;10.50;;;;;;;2.29;67.52;100221.90;105687;1260;70954;-75
2023/03/01 11:32:41;;;;;;;;;;;;;;;2.23;67.79;100222.30;105852;1260;71870;-74
2023/03/01 11:35:21;;;;;;;17.80;11.50;;;;;;;2.17;68.01;100225.80;105549;1254;59803;-75